sensor_id;sensor_type;location;lat;lon;timestamp;pressure;altitude;pressure_sealevel;temperature;humidity
71573;BME280;59408;51.032;9.410;2023-04-21T00:02:09;98814.16;;;7.33;100.00
71573;BME280;59408;51.032;9.410;2023-04-21T00:04:36;98810.97;;;7.31;100.00
71573;BME280;59408;51.032;9.410;2023-04-21T00:07:03;98813.97;;;7.30;100.00
71573;BME280;59408;51.032;9.410;2023-04-21T00:09:31;98808.41;;;7.26;100.00
71573;BME280;59408;51.032;9.410;2023-04-21T00:11:57;98807.13;;;7.23;100.00
71573;BME280;59408;51.032;9.410;2023-04-21T00:14:24;98810.66;;;7.24;100.00
71573;BME280;59408;51.032;9.410;2023-04-21T00:16:51;98808.13;;;7.19;100.00
71573;BME280;59408;51.032;9.410;2023-04-21T00:19:17;98806.34;;;7.14;100.00
71573;BME280;59408;51.032;9.410;2023-04-21T00:21:44;98805.72;;;7.17;100.00
71573;BME280;59408;51.032;9.410;2023-04-21T00:24:11;98808.75;;;7.16;100.00
71573;BME280;59408;51.032;9.410;2023-04-21T00:26:39;98815.47;;;7.18;100.00
71573;BME280;59408;51.032;9.410;2023-04-21T00:29:06;98804.44;;;7.15;100.00
71573;BME280;59408;51.032;9.410;2023-04-21T00:31:32;98811.97;;;7.09;100.00
71573;BME280;59408;51.032;9.410;2023-04-21T00:33:59;98806.69;;;7.04;100.00
71573;BME280;59408;51.032;9.410;2023-04-21T00:36:26;98817.53;;;7.04;100.00
71573;BME280;59408;51.032;9.410;2023-04-21T00:38:52;98815.31;;;7.06;100.00
71573;BME280;59408;51.032;9.410;2023-04-21T00:41:19;98816.41;;;7.05;100.00
71573;BME280;59408;51.032;9.410;2023-04-21T00:44:03;98821.03;;;7.05;100.00
71573;BME280;59408;51.032;9.410;2023-04-21T00:46:29;98822.47;;;7.02;100.00
71573;BME280;59408;51.032;9.410;2023-04-21T00:48:56;98820.75;;;6.98;100.00
71573;BME280;59408;51.032;9.410;2023-04-21T00:51:23;98822.66;;;6.97;100.00
71573;BME280;59408;51.032;9.410;2023-04-21T00:53:50;98832.38;;;6.98;100.00
71573;BME280;59408;51.032;9.410;2023-04-21T00:56:17;98822.16;;;6.95;100.00
71573;BME280;59408;51.032;9.410;2023-04-21T00:58:44;98823.75;;;6.96;100.00
71573;BME280;59408;51.032;9.410;2023-04-21T01:01:13;98816.75;;;6.95;100.00
71573;BME280;59408;51.032;9.410;2023-04-21T01:03:40;98810.19;;;6.96;100.00
71573;BME280;59408;51.032;9.410;2023-04-21T01:06:08;98814.34;;;6.94;100.00
71573;BME280;59408;51.032;9.410;2023-04-21T01:08:35;98810.84;;;6.93;100.00
71573;BME280;59408;51.032;9.410;2023-04-21T01:11:08;98816.91;;;6.90;100.00
71573;BME280;59408;51.032;9.410;2023-04-21T01:13:35;98811.00;;;6.88;100.00
71573;BME280;59408;51.032;9.410;2023-04-21T01:16:01;98804.00;;;6.87;100.00
71573;BME280;59408;51.032;9.410;2023-04-21T01:18:29;98803.81;;;6.83;100.00
71573;BME280;59408;51.032;9.410;2023-04-21T01:20:56;98807.19;;;6.80;100.00
71573;BME280;59408;51.032;9.410;2023-04-21T01:23:24;98813.25;;;6.77;100.00
71573;BME280;59408;51.032;9.410;2023-04-21T01:25:51;98808.44;;;6.74;100.00
71573;BME280;59408;51.032;9.410;2023-04-21T01:28:20;98802.25;;;6.74;100.00
71573;BME280;59408;51.032;9.410;2023-04-21T01:30:47;98814.03;;;6.69;100.00
71573;BME280;59408;51.032;9.410;2023-04-21T01:33:14;98811.81;;;6.71;100.00
71573;BME280;59408;51.032;9.410;2023-04-21T01:35:41;98803.69;;;6.71;100.00
71573;BME280;59408;51.032;9.410;2023-04-21T01:38:08;98806.38;;;6.71;100.00
71573;BME280;59408;51.032;9.410;2023-04-21T01:40:36;98803.19;;;6.69;100.00
71573;BME280;59408;51.032;9.410;2023-04-21T01:43:03;98808.63;;;6.69;100.00
71573;BME280;59408;51.032;9.410;2023-04-21T01:45:29;98810.34;;;6.65;100.00
71573;BME280;59408;51.032;9.410;2023-04-21T01:47:56;98811.16;;;6.66;100.00
71573;BME280;59408;51.032;9.410;2023-04-21T01:50:23;98804.47;;;6.63;100.00
71573;BME280;59408;51.032;9.410;2023-04-21T01:52:50;98806.88;;;6.65;100.00
71573;BME280;59408;51.032;9.410;2023-04-21T01:55:16;98802.22;;;6.65;100.00
71573;BME280;59408;51.032;9.410;2023-04-21T01:57:44;98806.38;;;6.63;100.00
71573;BME280;59408;51.032;9.410;2023-04-21T02:00:12;98813.53;;;6.59;100.00
71573;BME280;59408;51.032;9.410;2023-04-21T02:02:39;98803.38;;;6.56;100.00
71573;BME280;59408;51.032;9.410;2023-04-21T02:05:06;98807.81;;;6.51;100.00
71573;BME280;59408;51.032;9.410;2023-04-21T02:07:33;98808.44;;;6.48;100.00
71573;BME280;59408;51.032;9.410;2023-04-21T02:10:00;98806.22;;;6.50;100.00
71573;BME280;59408;51.032;9.410;2023-04-21T02:12:27;98809.09;;;6.45;100.00
71573;BME280;59408;51.032;9.410;2023-04-21T02:14:55;98808.28;;;6.45;100.00
71573;BME280;59408;51.032;9.410;2023-04-21T02:17:21;98816.09;;;6.46;100.00
71573;BME280;59408;51.032;9.410;2023-04-21T02:19:48;98814.50;;;6.45;100.00
71573;BME280;59408;51.032;9.410;2023-04-21T02:22:15;98809.88;;;6.46;100.00
71573;BME280;59408;51.032;9.410;2023-04-21T02:24:41;98808.28;;;6.45;100.00
71573;BME280;59408;51.032;9.410;2023-04-21T02:27:08;98796.34;;;6.46;100.00
71573;BME280;59408;51.032;9.410;2023-04-21T02:29:35;98801.75;;;6.46;100.00
71573;BME280;59408;51.032;9.410;2023-04-21T02:32:03;98802.56;;;6.46;100.00
71573;BME280;59408;51.032;9.410;2023-04-21T02:34:47;98798.25;;;6.45;100.00
71573;BME280;59408;51.032;9.410;2023-04-21T02:37:14;98799.19;;;6.49;100.00
71573;BME280;59408;51.032;9.410;2023-04-21T02:39:40;98790.94;;;6.46;100.00
71573;BME280;59408;51.032;9.410;2023-04-21T02:42:07;98796.50;;;6.49;100.00
71573;BME280;59408;51.032;9.410;2023-04-21T02:44:36;98794.09;;;6.48;100.00
71573;BME280;59408;51.032;9.410;2023-04-21T02:47:04;98792.50;;;6.47;100.00
71573;BME280;59408;51.032;9.410;2023-04-21T02:49:30;98794.88;;;6.48;100.00
71573;BME280;59408;51.032;9.410;2023-04-21T02:51:57;98796.19;;;6.51;100.00
71573;BME280;59408;51.032;9.410;2023-04-21T02:54:23;98798.56;;;6.53;100.00
71573;BME280;59408;51.032;9.410;2023-04-21T02:56:50;98796.50;;;6.49;100.00
71573;BME280;59408;51.032;9.410;2023-04-21T02:59:17;98795.19;;;6.47;100.00
71573;BME280;59408;51.032;9.410;2023-04-21T03:01:44;98806.03;;;6.47;100.00
71573;BME280;59408;51.032;9.410;2023-04-21T03:04:12;98804.13;;;6.47;100.00
71573;BME280;59408;51.032;9.410;2023-04-21T03:06:38;98801.75;;;6.46;100.00
71573;BME280;59408;51.032;9.410;2023-04-21T03:09:05;98803.97;;;6.44;100.00
71573;BME280;59408;51.032;9.410;2023-04-21T03:11:32;98806.22;;;6.42;100.00
71573;BME280;59408;51.032;9.410;2023-04-21T03:13:58;98793.78;;;6.41;100.00
71573;BME280;59408;51.032;9.410;2023-04-21T03:16:25;98804.47;;;6.46;100.00
71573;BME280;59408;51.032;9.410;2023-04-21T03:18:52;98789.31;;;6.45;100.00
71573;BME280;59408;51.032;9.410;2023-04-21T03:21:20;98792.50;;;6.47;100.00
71573;BME280;59408;51.032;9.410;2023-04-21T03:23:47;98791.38;;;6.48;100.00
71573;BME280;59408;51.032;9.410;2023-04-21T03:26:13;98792.66;;;6.50;100.00
71573;BME280;59408;51.032;9.410;2023-04-21T03:28:40;98789.97;;;6.50;100.00
71573;BME280;59408;51.032;9.410;2023-04-21T03:31:06;98792.53;;;6.56;100.00
71573;BME280;59408;51.032;9.410;2023-04-21T03:33:33;98792.19;;;6.57;100.00
71573;BME280;59408;51.032;9.410;2023-04-21T03:35:59;98793.78;;;6.58;100.00
71573;BME280;59408;51.032;9.410;2023-04-21T03:38:28;98790.28;;;6.58;100.00
71573;BME280;59408;51.032;9.410;2023-04-21T03:40:55;98781.03;;;6.59;100.00
71573;BME280;59408;51.032;9.410;2023-04-21T03:43:22;98788.53;;;6.62;100.00
71573;BME280;59408;51.032;9.410;2023-04-21T03:45:48;98795.56;;;6.63;100.00
71573;BME280;59408;51.032;9.410;2023-04-21T03:48:15;98792.03;;;6.62;100.00
71573;BME280;59408;51.032;9.410;2023-04-21T03:50:42;98795.56;;;6.63;100.00
71573;BME280;59408;51.032;9.410;2023-04-21T03:53:08;98799.19;;;6.58;100.00
71573;BME280;59408;51.032;9.410;2023-04-21T03:55:36;98792.19;;;6.57;100.00
71573;BME280;59408;51.032;9.410;2023-04-21T03:58:03;98798.41;;;6.58;100.00
71573;BME280;59408;51.032;9.410;2023-04-21T04:00:30;98804.63;;;6.58;100.00
71573;BME280;59408;51.032;9.410;2023-04-21T04:02:56;98805.41;;;6.59;100.00
71573;BME280;59408;51.032;9.410;2023-04-21T04:05:23;98795.06;;;6.61;100.00
71573;BME280;59408;51.032;9.410;2023-04-21T04:07:50;98810.34;;;6.65;100.00
71573;BME280;59408;51.032;9.410;2023-04-21T04:10:17;98809.09;;;6.63;100.00
71573;BME280;59408;51.032;9.410;2023-04-21T04:12:45;98802.22;;;6.65;100.00
71573;BME280;59408;51.032;9.410;2023-04-21T04:15:12;98802.22;;;6.65;100.00
71573;BME280;59408;51.032;9.410;2023-04-21T04:17:38;98794.09;;;6.65;100.00
71573;BME280;59408;51.032;9.410;2023-04-21T04:20:06;98799.19;;;6.67;100.00
71573;BME280;59408;51.032;9.410;2023-04-21T04:22:33;98801.91;;;6.67;100.00
71573;BME280;59408;51.032;9.410;2023-04-21T04:24:59;98805.41;;;6.67;100.00
71573;BME280;59408;51.032;9.410;2023-04-21T04:27:26;98800.66;;;6.64;100.00
71573;BME280;59408;51.032;9.410;2023-04-21T04:29:54;98787.56;;;6.66;100.00
71573;BME280;59408;51.032;9.410;2023-04-21T04:32:21;98803.50;;;6.68;100.00
71573;BME280;59408;51.032;9.410;2023-04-21T04:34:48;98795.88;;;6.70;100.00
71573;BME280;59408;51.032;9.410;2023-04-21T04:37:14;98804.47;;;6.72;100.00
71573;BME280;59408;51.032;9.410;2023-04-21T04:39:41;98800.81;;;6.76;100.00
71573;BME280;59408;51.032;9.410;2023-04-21T04:42:07;98793.47;;;6.77;100.00
71573;BME280;59408;51.032;9.410;2023-04-21T04:44:34;98794.44;;;6.81;100.00
71573;BME280;59408;51.032;9.410;2023-04-21T04:47:02;98801.91;;;6.84;100.00
71573;BME280;59408;51.032;9.410;2023-04-21T04:49:29;98796.50;;;6.84;100.00
71573;BME280;59408;51.032;9.410;2023-04-21T04:51:55;98805.91;;;6.86;100.00
71573;BME280;59408;51.032;9.410;2023-04-21T04:54:22;98797.94;;;6.90;100.00
71573;BME280;59408;51.032;9.410;2023-04-21T04:56:49;98802.38;;;6.95;100.00
71573;BME280;59408;51.032;9.410;2023-04-21T04:59:15;98804.47;;;6.98;100.00
71573;BME280;59408;51.032;9.410;2023-04-21T05:01:42;98801.56;;;7.03;100.00
71573;BME280;59408;51.032;9.410;2023-04-21T05:04:10;98811.00;;;7.05;100.00
71573;BME280;59408;51.032;9.410;2023-04-21T05:06:37;98812.41;;;7.11;100.00
71573;BME280;59408;51.032;9.410;2023-04-21T05:09:03;98813.84;;;7.17;100.00
71573;BME280;59408;51.032;9.410;2023-04-21T05:11:30;98817.34;;;7.26;100.00
71573;BME280;59408;51.032;9.410;2023-04-21T05:13:59;98826.13;;;7.32;100.00
71573;BME280;59408;51.032;9.410;2023-04-21T05:16:26;98830.75;;;7.40;100.00
71573;BME280;59408;51.032;9.410;2023-04-21T05:18:52;98826.56;;;7.51;100.00
71573;BME280;59408;51.032;9.410;2023-04-21T05:21:25;98829.44;;;7.63;99.97
71573;BME280;59408;51.032;9.410;2023-04-21T05:23:51;98827.28;;;7.78;98.87
71573;BME280;59408;51.032;9.410;2023-04-21T05:26:18;98823.69;;;7.94;97.37
71573;BME280;59408;51.032;9.410;2023-04-21T05:28:45;98811.16;;;8.11;96.65
71573;BME280;59408;51.032;9.410;2023-04-21T05:31:11;98819.06;;;8.24;96.67
71573;BME280;59408;51.032;9.410;2023-04-21T05:33:38;98820.47;;;8.30;95.88
71573;BME280;59408;51.032;9.410;2023-04-21T05:36:06;98818.88;;;8.29;94.52
71573;BME280;59408;51.032;9.410;2023-04-21T05:38:34;98822.75;;;8.28;95.04
71573;BME280;59408;51.032;9.410;2023-04-21T05:41:01;98824.47;;;8.33;94.36
71573;BME280;59408;51.032;9.410;2023-04-21T05:43:27;98827.94;;;8.42;94.46
71573;BME280;59408;51.032;9.410;2023-04-21T05:45:54;98832.50;;;8.50;93.56
71573;BME280;59408;51.032;9.410;2023-04-21T05:48:20;98842.78;;;8.65;92.98
71573;BME280;59408;51.032;9.410;2023-04-21T05:50:47;98843.19;;;8.76;92.78
71573;BME280;59408;51.032;9.410;2023-04-21T05:53:14;98835.84;;;8.76;92.16
71573;BME280;59408;51.032;9.410;2023-04-21T05:55:42;98838.75;;;8.71;92.02
71573;BME280;59408;51.032;9.410;2023-04-21T05:58:08;98834.78;;;8.69;92.47
71573;BME280;59408;51.032;9.410;2023-04-21T06:00:35;98838.63;;;8.68;91.69
71573;BME280;59408;51.032;9.410;2023-04-21T06:03:02;98837.63;;;8.72;92.04
71573;BME280;59408;51.032;9.410;2023-04-21T06:05:28;98831.34;;;8.81;91.93
71573;BME280;59408;51.032;9.410;2023-04-21T06:07:55;98826.47;;;8.86;91.31
71573;BME280;59408;51.032;9.410;2023-04-21T06:10:22;98837.28;;;8.95;91.17
71573;BME280;59408;51.032;9.410;2023-04-21T06:12:50;98837.63;;;8.93;90.80
71573;BME280;59408;51.032;9.410;2023-04-21T06:15:16;98822.44;;;8.92;91.20
71573;BME280;59408;51.032;9.410;2023-04-21T06:17:43;98826.41;;;8.95;90.86
71573;BME280;59408;51.032;9.410;2023-04-21T06:20:10;98818.97;;;9.04;90.83
71573;BME280;59408;51.032;9.410;2023-04-21T06:22:37;98826.81;;;9.05;90.32
71573;BME280;59408;51.032;9.410;2023-04-21T06:25:04;98820.81;;;9.12;90.35
71573;BME280;59408;51.032;9.410;2023-04-21T06:27:31;98825.59;;;9.15;90.95
71573;BME280;59408;51.032;9.410;2023-04-21T06:29:59;98821.84;;;9.28;89.96
71573;BME280;59408;51.032;9.410;2023-04-21T06:32:26;98824.38;;;9.45;89.64
71573;BME280;59408;51.032;9.410;2023-04-21T06:34:53;98818.50;;;9.56;88.35
71573;BME280;59408;51.032;9.410;2023-04-21T06:37:19;98813.06;;;9.68;88.08
71573;BME280;59408;51.032;9.410;2023-04-21T06:39:46;98818.53;;;9.80;87.29
71573;BME280;59408;51.032;9.410;2023-04-21T06:42:12;98825.81;;;10.00;86.37
71573;BME280;59408;51.032;9.410;2023-04-21T06:44:39;98818.56;;;10.29;85.39
71573;BME280;59408;51.032;9.410;2023-04-21T06:47:07;98822.41;;;10.28;84.63
71573;BME280;59408;51.032;9.410;2023-04-21T06:49:34;98820.38;;;10.24;84.85
71573;BME280;59408;51.032;9.410;2023-04-21T06:52:00;98812.41;;;10.32;85.15
71573;BME280;59408;51.032;9.410;2023-04-21T06:54:27;98815.72;;;10.37;84.59
71573;BME280;59408;51.032;9.410;2023-04-21T06:56:53;98816.13;;;10.51;84.18
71573;BME280;59408;51.032;9.410;2023-04-21T06:59:20;98824.28;;;10.76;82.99
71573;BME280;59408;51.032;9.410;2023-04-21T07:01:47;98831.31;;;10.89;82.25
71573;BME280;59408;51.032;9.410;2023-04-21T07:04:15;98823.97;;;11.05;81.95
71573;BME280;59408;51.032;9.410;2023-04-21T07:06:42;98823.13;;;11.17;82.11
71573;BME280;59408;51.032;9.410;2023-04-21T07:09:09;98813.88;;;11.21;80.03
71573;BME280;59408;51.032;9.410;2023-04-21T07:11:36;98815.28;;;11.15;80.78
71573;BME280;59408;51.032;9.410;2023-04-21T07:14:04;98819.16;;;11.42;81.57
71573;BME280;59408;51.032;9.410;2023-04-21T07:16:31;98815.13;;;11.67;79.34
71573;BME280;59408;51.032;9.410;2023-04-21T07:18:58;98810.63;;;11.75;79.00
71573;BME280;59408;51.032;9.410;2023-04-21T07:21:25;98806.94;;;11.83;79.03
71573;BME280;59408;51.032;9.410;2023-04-21T07:23:52;98802.97;;;11.81;78.39
71573;BME280;59408;51.032;9.410;2023-04-21T07:26:19;98811.34;;;11.88;77.78
71573;BME280;59408;51.032;9.410;2023-04-21T07:28:45;98811.78;;;11.90;78.00
71573;BME280;59408;51.032;9.410;2023-04-21T07:31:12;98805.25;;;11.94;78.57
71573;BME280;59408;51.032;9.410;2023-04-21T07:33:39;98810.63;;;12.06;77.72
71573;BME280;59408;51.032;9.410;2023-04-21T07:36:06;98810.47;;;12.15;77.05
71573;BME280;59408;51.032;9.410;2023-04-21T07:38:34;98801.28;;;12.23;77.15
71573;BME280;59408;51.032;9.410;2023-04-21T07:41:00;98802.06;;;12.39;77.50
71573;BME280;59408;51.032;9.410;2023-04-21T07:43:27;98802.25;;;12.85;74.84
71573;BME280;59408;51.032;9.410;2023-04-21T07:45:54;98801.84;;;13.02;75.04
71573;BME280;59408;51.032;9.410;2023-04-21T07:48:20;98798.03;;;13.07;72.77
71573;BME280;59408;51.032;9.410;2023-04-21T07:50:47;98788.75;;;12.92;72.95
71573;BME280;59408;51.032;9.410;2023-04-21T07:53:14;98792.34;;;12.96;74.49
71573;BME280;59408;51.032;9.410;2023-04-21T07:55:42;98790.69;;;13.11;73.59
71573;BME280;59408;51.032;9.410;2023-04-21T07:58:09;98793.97;;;13.39;72.45
71573;BME280;59408;51.032;9.410;2023-04-21T08:00:35;98790.41;;;13.58;72.38
71573;BME280;59408;51.032;9.410;2023-04-21T08:03:02;98797.97;;;13.87;71.09
71573;BME280;59408;51.032;9.410;2023-04-21T08:05:29;98791.97;;;14.05;69.94
71573;BME280;59408;51.032;9.410;2023-04-21T08:08:01;98797.41;;;13.78;69.30
71573;BME280;59408;51.032;9.410;2023-04-21T08:10:28;98797.28;;;13.48;71.04
71573;BME280;59408;51.032;9.410;2023-04-21T08:12:56;98800.69;;;13.42;69.94
71573;BME280;59408;51.032;9.410;2023-04-21T08:15:22;98796.63;;;13.36;71.56
71573;BME280;59408;51.032;9.410;2023-04-21T08:17:49;98779.47;;;13.81;69.94
71573;BME280;59408;51.032;9.410;2023-04-21T08:20:16;98783.91;;;14.15;70.58
71573;BME280;59408;51.032;9.410;2023-04-21T08:22:42;98792.69;;;14.24;69.88
71573;BME280;59408;51.032;9.410;2023-04-21T08:25:12;98788.78;;;14.25;70.26
71573;BME280;59408;51.032;9.410;2023-04-21T08:27:39;98790.41;;;14.30;68.83
71573;BME280;59408;51.032;9.410;2023-04-21T08:30:08;98786.63;;;14.64;68.60
71573;BME280;59408;51.032;9.410;2023-04-21T08:32:35;98781.59;;;15.00;66.10
71573;BME280;59408;51.032;9.410;2023-04-21T08:35:02;98791.88;;;15.06;64.52
71573;BME280;59408;51.032;9.410;2023-04-21T08:37:29;98782.81;;;15.39;63.55
71573;BME280;59408;51.032;9.410;2023-04-21T08:39:55;98778.06;;;15.73;63.39
71573;BME280;59408;51.032;9.410;2023-04-21T08:42:22;98772.50;;;16.10;62.64
71573;BME280;59408;51.032;9.410;2023-04-21T08:44:49;98767.94;;;16.36;61.89
71573;BME280;59408;51.032;9.410;2023-04-21T08:47:17;98773.00;;;16.99;59.71
71573;BME280;59408;51.032;9.410;2023-04-21T08:49:47;98771.94;;;17.43;59.19
71573;BME280;59408;51.032;9.410;2023-04-21T08:52:15;98760.97;;;17.67;59.05
71573;BME280;59408;51.032;9.410;2023-04-21T08:54:43;98763.34;;;17.94;57.91
71573;BME280;59408;51.032;9.410;2023-04-21T08:57:09;98766.44;;;17.50;56.17
71573;BME280;59408;51.032;9.410;2023-04-21T08:59:41;98764.81;;;17.24;56.72
71573;BME280;59408;51.032;9.410;2023-04-21T09:02:09;98765.88;;;16.94;58.30
71573;BME280;59408;51.032;9.410;2023-04-21T09:04:39;98766.59;;;16.74;58.89
71573;BME280;59408;51.032;9.410;2023-04-21T09:07:06;98758.13;;;16.38;59.13
71573;BME280;59408;51.032;9.410;2023-04-21T09:09:32;98751.88;;;16.45;61.41
71573;BME280;59408;51.032;9.410;2023-04-21T09:12:00;98759.50;;;16.76;60.12
71573;BME280;59408;51.032;9.410;2023-04-21T09:14:33;98739.66;;;17.43;60.31
71573;BME280;59408;51.032;9.410;2023-04-21T09:17:00;98742.44;;;18.14;57.79
71573;BME280;59408;51.032;9.410;2023-04-21T09:19:27;98733.63;;;18.76;55.92
71573;BME280;59408;51.032;9.410;2023-04-21T09:21:55;98733.97;;;18.89;55.55
71573;BME280;59408;51.032;9.410;2023-04-21T09:24:22;98735.22;;;18.77;54.39
71573;BME280;59408;51.032;9.410;2023-04-21T09:26:49;98737.63;;;18.61;53.94
71573;BME280;59408;51.032;9.410;2023-04-21T09:29:16;98730.16;;;18.58;54.26
71573;BME280;59408;51.032;9.410;2023-04-21T09:31:43;98735.25;;;18.73;56.34
71573;BME280;59408;51.032;9.410;2023-04-21T09:34:17;98732.13;;;18.64;54.24
71573;BME280;59408;51.032;9.410;2023-04-21T09:36:44;98745.56;;;18.44;55.86
71573;BME280;59408;51.032;9.410;2023-04-21T09:39:13;98739.66;;;18.35;54.65
71573;BME280;59408;51.032;9.410;2023-04-21T09:41:59;98734.97;;;18.18;54.77
71573;BME280;59408;51.032;9.410;2023-04-21T09:44:26;98742.06;;;18.09;55.29
71573;BME280;59408;51.032;9.410;2023-04-21T09:46:57;98744.03;;;17.87;55.41
71573;BME280;59408;51.032;9.410;2023-04-21T09:49:28;98735.38;;;17.60;57.01
71573;BME280;59408;51.032;9.410;2023-04-21T09:51:56;98729.84;;;17.67;57.05
71573;BME280;59408;51.032;9.410;2023-04-21T09:54:48;98735.75;;;18.19;56.45
71573;BME280;59408;51.032;9.410;2023-04-21T09:57:19;98734.44;;;18.69;57.56
71573;BME280;59408;51.032;9.410;2023-04-21T09:59:51;98733.38;;;19.29;54.72
71573;BME280;59408;51.032;9.410;2023-04-21T10:02:20;98732.31;;;19.71;52.96
71573;BME280;59408;51.032;9.410;2023-04-21T10:04:50;98732.09;;;20.00;51.63
71573;BME280;59408;51.032;9.410;2023-04-21T10:07:17;98732.47;;;20.02;51.05
71573;BME280;59408;51.032;9.410;2023-04-21T10:09:47;98731.97;;;20.17;52.01
71573;BME280;59408;51.032;9.410;2023-04-21T10:12:16;98727.84;;;19.88;52.72
71573;BME280;59408;51.032;9.410;2023-04-21T10:14:43;98726.84;;;18.95;52.42
71573;BME280;59408;51.032;9.410;2023-04-21T10:17:10;98720.72;;;18.48;53.60
71573;BME280;59408;51.032;9.410;2023-04-21T10:19:46;98723.13;;;18.03;55.26
71573;BME280;59408;51.032;9.410;2023-04-21T10:22:13;98712.88;;;18.15;55.50
71573;BME280;59408;51.032;9.410;2023-04-21T10:24:41;98716.06;;;18.02;56.98
71573;BME280;59408;51.032;9.410;2023-04-21T10:27:11;98705.44;;;17.73;56.15
71573;BME280;59408;51.032;9.410;2023-04-21T10:29:38;98718.00;;;17.38;56.72
71573;BME280;59408;51.032;9.410;2023-04-21T10:32:39;98724.66;;;17.19;57.50
71573;BME280;59408;51.032;9.410;2023-04-21T10:35:08;98717.94;;;17.17;58.34
71573;BME280;59408;51.032;9.410;2023-04-21T10:37:35;98714.41;;;17.27;58.50
71573;BME280;59408;51.032;9.410;2023-04-21T10:40:02;98700.22;;;17.14;57.72
71573;BME280;59408;51.032;9.410;2023-04-21T10:42:33;98691.53;;;17.09;58.61
71573;BME280;59408;51.032;9.410;2023-04-21T10:45:05;98695.50;;;17.18;59.68
71573;BME280;59408;51.032;9.410;2023-04-21T10:47:35;98692.00;;;17.46;60.37
71573;BME280;59408;51.032;9.410;2023-04-21T10:50:13;98692.56;;;18.78;57.31
71573;BME280;59408;51.032;9.410;2023-04-21T10:52:43;98698.88;;;18.78;54.65
71573;BME280;59408;51.032;9.410;2023-04-21T10:55:10;98691.91;;;18.42;56.86
71573;BME280;59408;51.032;9.410;2023-04-21T10:57:41;98702.19;;;18.24;55.75
71573;BME280;59408;51.032;9.410;2023-04-21T11:00:09;98695.88;;;18.37;56.70
71573;BME280;59408;51.032;9.410;2023-04-21T11:02:36;98686.91;;;19.06;53.70
71573;BME280;59408;51.032;9.410;2023-04-21T11:05:08;98678.19;;;19.11;54.33
71573;BME280;59408;51.032;9.410;2023-04-21T11:07:34;98675.31;;;19.26;52.62
71573;BME280;59408;51.032;9.410;2023-04-21T11:10:03;98688.66;;;19.45;54.99
71573;BME280;59408;51.032;9.410;2023-04-21T11:12:31;98681.00;;;20.04;51.88
71573;BME280;59408;51.032;9.410;2023-04-21T11:15:02;98666.81;;;20.40;50.87
71573;BME280;59408;51.032;9.410;2023-04-21T11:17:30;98678.97;;;20.83;51.47
71573;BME280;59408;51.032;9.410;2023-04-21T11:19:57;98667.66;;;21.28;50.00
71573;BME280;59408;51.032;9.410;2023-04-21T11:22:24;98671.94;;;21.32;49.56
71573;BME280;59408;51.032;9.410;2023-04-21T11:24:53;98677.34;;;20.55;50.51
71573;BME280;59408;51.032;9.410;2023-04-21T11:27:20;98676.16;;;20.53;49.98
71573;BME280;59408;51.032;9.410;2023-04-21T11:29:47;98681.53;;;20.67;51.45
71573;BME280;59408;51.032;9.410;2023-04-21T11:32:16;98675.97;;;20.37;48.91
71573;BME280;59408;51.032;9.410;2023-04-21T11:34:43;98667.03;;;20.56;50.50
71573;BME280;59408;51.032;9.410;2023-04-21T11:37:23;98663.41;;;20.89;49.21
71573;BME280;59408;51.032;9.410;2023-04-21T11:39:55;98665.66;;;21.01;49.68
71573;BME280;59408;51.032;9.410;2023-04-21T11:42:22;98660.06;;;21.05;48.52
71573;BME280;59408;51.032;9.410;2023-04-21T11:44:49;98661.09;;;21.42;49.21
71573;BME280;59408;51.032;9.410;2023-04-21T11:47:18;98654.63;;;22.18;48.42
71573;BME280;59408;51.032;9.410;2023-04-21T11:49:46;98656.59;;;22.61;45.00
71573;BME280;59408;51.032;9.410;2023-04-21T11:52:20;98658.00;;;23.41;43.66
71573;BME280;59408;51.032;9.410;2023-04-21T11:54:47;98657.56;;;23.26;42.72
71573;BME280;59408;51.032;9.410;2023-04-21T11:57:17;98647.03;;;22.62;45.07
71573;BME280;59408;51.032;9.410;2023-04-21T11:59:44;98645.88;;;22.79;46.29
71573;BME280;59408;51.032;9.410;2023-04-21T12:02:12;98641.09;;;22.79;46.29
71573;BME280;59408;51.032;9.410;2023-04-21T12:04:40;98646.47;;;23.06;42.98
71573;BME280;59408;51.032;9.410;2023-04-21T12:07:07;98645.41;;;23.00;44.35
71573;BME280;59408;51.032;9.410;2023-04-21T12:09:35;98635.13;;;23.66;44.74
71573;BME280;59408;51.032;9.410;2023-04-21T12:12:02;98635.81;;;23.21;44.37
71573;BME280;59408;51.032;9.410;2023-04-21T12:14:32;98627.97;;;23.32;44.58
71573;BME280;59408;51.032;9.410;2023-04-21T12:16:59;98626.03;;;23.13;46.92
71573;BME280;59408;51.032;9.410;2023-04-21T12:19:34;98629.56;;;23.49;42.82
71573;BME280;59408;51.032;9.410;2023-04-21T12:22:06;98613.84;;;23.88;42.53
71573;BME280;59408;51.032;9.410;2023-04-21T12:24:32;98627.72;;;23.59;43.67
71573;BME280;59408;51.032;9.410;2023-04-21T12:27:02;98619.47;;;23.55;43.61
71573;BME280;59408;51.032;9.410;2023-04-21T12:29:30;98623.25;;;23.78;43.50
71573;BME280;59408;51.032;9.410;2023-04-21T12:31:56;98619.91;;;23.38;44.00
71573;BME280;59408;51.032;9.410;2023-04-21T12:34:23;98611.13;;;23.39;43.31
71573;BME280;59408;51.032;9.410;2023-04-21T12:36:50;98632.19;;;23.04;43.52
71573;BME280;59408;51.032;9.410;2023-04-21T12:39:18;98625.97;;;22.80;44.57
71573;BME280;59408;51.032;9.410;2023-04-21T12:41:44;98621.78;;;23.08;44.56
71573;BME280;59408;51.032;9.410;2023-04-21T12:44:11;98633.28;;;22.74;46.40
71573;BME280;59408;51.032;9.410;2023-04-21T12:46:38;98618.25;;;22.12;45.99
71573;BME280;59408;51.032;9.410;2023-04-21T12:49:04;98608.06;;;22.65;45.08
71573;BME280;59408;51.032;9.410;2023-04-21T12:51:31;98606.41;;;23.20;44.87
71573;BME280;59408;51.032;9.410;2023-04-21T12:53:58;98604.31;;;23.73;44.91
71573;BME280;59408;51.032;9.410;2023-04-21T12:56:26;98600.34;;;23.57;42.70
71573;BME280;59408;51.032;9.410;2023-04-21T12:58:52;98607.97;;;23.70;43.50
71573;BME280;59408;51.032;9.410;2023-04-21T13:01:19;98596.78;;;24.02;41.77
71573;BME280;59408;51.032;9.410;2023-04-21T13:03:46;98580.56;;;23.52;42.20
71573;BME280;59408;51.032;9.410;2023-04-21T13:06:13;98597.31;;;23.81;43.00